sensor_id;sensor_type;location;lat;lon;timestamp;temperature;humidity
35111;DHT22;21290;50.158;8.658;2023-02-15T00:01:52;2.20;99.90
35111;DHT22;21290;50.158;8.658;2023-02-15T00:04:22;2.20;99.90
35111;DHT22;21290;50.158;8.658;2023-02-15T00:06:49;2.20;99.90
35111;DHT22;21290;50.158;8.658;2023-02-15T00:09:16;2.30;99.90
35111;DHT22;21290;50.158;8.658;2023-02-15T00:11:43;2.30;99.90
35111;DHT22;21290;50.158;8.658;2023-02-15T00:14:17;2.30;99.90
35111;DHT22;21290;50.158;8.658;2023-02-15T00:16:44;2.30;99.90
35111;DHT22;21290;50.158;8.658;2023-02-15T00:19:12;2.40;99.90
35111;DHT22;21290;50.158;8.658;2023-02-15T00:21:39;2.40;99.90
35111;DHT22;21290;50.158;8.658;2023-02-15T00:24:08;2.40;99.90
35111;DHT22;21290;50.158;8.658;2023-02-15T00:26:35;2.40;99.90
35111;DHT22;21290;50.158;8.658;2023-02-15T00:29:02;2.40;99.90
35111;DHT22;21290;50.158;8.658;2023-02-15T00:31:31;2.40;99.90
35111;DHT22;21290;50.158;8.658;2023-02-15T00:34:19;2.40;99.90
35111;DHT22;21290;50.158;8.658;2023-02-15T00:36:46;2.30;99.90
35111;DHT22;21290;50.158;8.658;2023-02-15T00:39:13;2.40;99.90
35111;DHT22;21290;50.158;8.658;2023-02-15T00:41:40;2.40;99.90
35111;DHT22;21290;50.158;8.658;2023-02-15T00:44:07;2.40;99.90
35111;DHT22;21290;50.158;8.658;2023-02-15T00:46:34;2.40;99.90
35111;DHT22;21290;50.158;8.658;2023-02-15T00:49:02;2.30;99.90
35111;DHT22;21290;50.158;8.658;2023-02-15T00:51:29;2.30;99.90
35111;DHT22;21290;50.158;8.658;2023-02-15T00:53:56;2.30;99.90
35111;DHT22;21290;50.158;8.658;2023-02-15T00:56:22;2.20;99.90
35111;DHT22;21290;50.158;8.658;2023-02-15T00:58:49;2.20;99.90
35111;DHT22;21290;50.158;8.658;2023-02-15T01:01:18;2.20;99.90
35111;DHT22;21290;50.158;8.658;2023-02-15T01:03:44;2.30;99.90
35111;DHT22;21290;50.158;8.658;2023-02-15T01:06:14;2.30;99.90
35111;DHT22;21290;50.158;8.658;2023-02-15T01:08:42;2.30;99.90
35111;DHT22;21290;50.158;8.658;2023-02-15T01:11:11;2.30;99.90
35111;DHT22;21290;50.158;8.658;2023-02-15T01:13:41;2.20;99.90
35111;DHT22;21290;50.158;8.658;2023-02-15T01:16:08;2.30;99.90
35111;DHT22;21290;50.158;8.658;2023-02-15T01:18:35;2.30;99.90
35111;DHT22;21290;50.158;8.658;2023-02-15T01:21:14;2.30;99.90
35111;DHT22;21290;50.158;8.658;2023-02-15T01:23:41;2.20;99.90
35111;DHT22;21290;50.158;8.658;2023-02-15T01:26:09;2.20;99.90
35111;DHT22;21290;50.158;8.658;2023-02-15T01:28:36;2.20;99.90
35111;DHT22;21290;50.158;8.658;2023-02-15T01:31:07;2.20;99.90
35111;DHT22;21290;50.158;8.658;2023-02-15T01:33:35;2.30;99.90
35111;DHT22;21290;50.158;8.658;2023-02-15T01:36:03;2.30;99.90
35111;DHT22;21290;50.158;8.658;2023-02-15T01:38:29;2.30;99.90
35111;DHT22;21290;50.158;8.658;2023-02-15T01:40:56;2.30;99.90
35111;DHT22;21290;50.158;8.658;2023-02-15T01:43:44;2.30;99.90
35111;DHT22;21290;50.158;8.658;2023-02-15T01:46:13;2.20;99.90
35111;DHT22;21290;50.158;8.658;2023-02-15T01:48:42;2.20;99.90
35111;DHT22;21290;50.158;8.658;2023-02-15T01:51:09;2.20;99.90
35111;DHT22;21290;50.158;8.658;2023-02-15T01:53:44;2.30;99.90
35111;DHT22;21290;50.158;8.658;2023-02-15T01:56:23;2.30;99.90
35111;DHT22;21290;50.158;8.658;2023-02-15T01:58:54;2.30;99.90
35111;DHT22;21290;50.158;8.658;2023-02-15T02:01:22;2.30;99.90
35111;DHT22;21290;50.158;8.658;2023-02-15T02:06:32;2.30;99.90
35111;DHT22;21290;50.158;8.658;2023-02-15T02:09:00;2.40;99.90
35111;DHT22;21290;50.158;8.658;2023-02-15T02:11:27;2.50;99.90
35111;DHT22;21290;50.158;8.658;2023-02-15T02:13:54;2.50;99.90
35111;DHT22;21290;50.158;8.658;2023-02-15T02:36:18;2.30;99.90
35111;DHT22;21290;50.158;8.658;2023-02-15T02:41:54;2.30;99.90
35111;DHT22;21290;50.158;8.658;2023-02-15T02:44:27;2.20;99.90
35111;DHT22;21290;50.158;8.658;2023-02-15T02:47:12;2.30;99.90
35111;DHT22;21290;50.158;8.658;2023-02-15T02:49:42;2.30;99.90
35111;DHT22;21290;50.158;8.658;2023-02-15T02:52:36;2.30;99.90
35111;DHT22;21290;50.158;8.658;2023-02-15T02:55:40;2.30;99.90
35111;DHT22;21290;50.158;8.658;2023-02-15T03:00:54;2.30;99.90
35111;DHT22;21290;50.158;8.658;2023-02-15T03:03:40;2.30;99.90
35111;DHT22;21290;50.158;8.658;2023-02-15T03:06:12;2.30;99.90
35111;DHT22;21290;50.158;8.658;2023-02-15T03:08:42;2.30;99.90
35111;DHT22;21290;50.158;8.658;2023-02-15T03:11:11;2.30;99.90
35111;DHT22;21290;50.158;8.658;2023-02-15T03:13:38;2.20;99.90
35111;DHT22;21290;50.158;8.658;2023-02-15T03:16:06;2.30;99.90
35111;DHT22;21290;50.158;8.658;2023-02-15T03:21:37;2.30;99.90
35111;DHT22;21290;50.158;8.658;2023-02-15T03:24:12;2.30;99.90
35111;DHT22;21290;50.158;8.658;2023-02-15T03:26:44;2.30;99.90
35111;DHT22;21290;50.158;8.658;2023-02-15T03:29:12;2.40;99.90
35111;DHT22;21290;50.158;8.658;2023-02-15T03:31:42;2.40;99.90
35111;DHT22;21290;50.158;8.658;2023-02-15T03:34:12;2.40;99.90
35111;DHT22;21290;50.158;8.658;2023-02-15T03:36:50;2.50;99.90
35111;DHT22;21290;50.158;8.658;2023-02-15T03:39:49;2.40;99.90
35111;DHT22;21290;50.158;8.658;2023-02-15T03:42:29;2.50;99.90
35111;DHT22;21290;50.158;8.658;2023-02-15T03:45:08;2.50;99.90
35111;DHT22;21290;50.158;8.658;2023-02-15T03:47:38;2.40;99.90
35111;DHT22;21290;50.158;8.658;2023-02-15T03:50:17;2.50;99.90
35111;DHT22;21290;50.158;8.658;2023-02-15T03:53:06;2.50;99.90
35111;DHT22;21290;50.158;8.658;2023-02-15T03:55:34;2.50;99.90
35111;DHT22;21290;50.158;8.658;2023-02-15T03:58:01;2.50;99.90
35111;DHT22;21290;50.158;8.658;2023-02-15T04:01:10;2.50;99.90
35111;DHT22;21290;50.158;8.658;2023-02-15T04:04:14;2.40;99.90
35111;DHT22;21290;50.158;8.658;2023-02-15T04:06:43;2.40;99.90
35111;DHT22;21290;50.158;8.658;2023-02-15T04:09:09;2.30;99.90
35111;DHT22;21290;50.158;8.658;2023-02-15T04:11:55;2.40;99.90
35111;DHT22;21290;50.158;8.658;2023-02-15T04:14:21;2.30;99.90
35111;DHT22;21290;50.158;8.658;2023-02-15T04:17:07;2.30;99.90
35111;DHT22;21290;50.158;8.658;2023-02-15T04:19:34;2.40;99.90
35111;DHT22;21290;50.158;8.658;2023-02-15T04:22:20;2.40;99.90
35111;DHT22;21290;50.158;8.658;2023-02-15T04:25:05;2.40;99.90
35111;DHT22;21290;50.158;8.658;2023-02-15T04:27:40;2.40;99.90
35111;DHT22;21290;50.158;8.658;2023-02-15T04:30:08;2.30;99.90
35111;DHT22;21290;50.158;8.658;2023-02-15T04:32:35;2.30;99.90
35111;DHT22;21290;50.158;8.658;2023-02-15T04:35:03;2.20;99.90
35111;DHT22;21290;50.158;8.658;2023-02-15T04:37:29;2.20;99.90
35111;DHT22;21290;50.158;8.658;2023-02-15T04:39:56;2.30;99.90
35111;DHT22;21290;50.158;8.658;2023-02-15T04:42:25;2.20;99.90
35111;DHT22;21290;50.158;8.658;2023-02-15T04:44:52;2.20;99.90
35111;DHT22;21290;50.158;8.658;2023-02-15T04:47:19;2.20;99.90
35111;DHT22;21290;50.158;8.658;2023-02-15T04:49:47;2.20;99.90
35111;DHT22;21290;50.158;8.658;2023-02-15T04:52:14;2.30;99.90
35111;DHT22;21290;50.158;8.658;2023-02-15T04:54:40;2.30;99.90
35111;DHT22;21290;50.158;8.658;2023-02-15T04:57:07;2.30;99.90
35111;DHT22;21290;50.158;8.658;2023-02-15T04:59:34;2.30;99.90
35111;DHT22;21290;50.158;8.658;2023-02-15T05:02:00;2.30;99.90
35111;DHT22;21290;50.158;8.658;2023-02-15T05:04:27;2.30;99.90
35111;DHT22;21290;50.158;8.658;2023-02-15T05:06:54;2.30;99.90
35111;DHT22;21290;50.158;8.658;2023-02-15T05:09:20;2.30;99.90
35111;DHT22;21290;50.158;8.658;2023-02-15T05:11:47;2.30;99.90
35111;DHT22;21290;50.158;8.658;2023-02-15T05:14:13;2.30;99.90
35111;DHT22;21290;50.158;8.658;2023-02-15T05:16:40;2.30;99.90
35111;DHT22;21290;50.158;8.658;2023-02-15T05:19:07;2.30;99.90
35111;DHT22;21290;50.158;8.658;2023-02-15T05:21:33;2.30;99.90
35111;DHT22;21290;50.158;8.658;2023-02-15T05:24:00;2.30;99.90
35111;DHT22;21290;50.158;8.658;2023-02-15T05:26:27;2.30;99.90
35111;DHT22;21290;50.158;8.658;2023-02-15T05:29:12;2.30;99.90
35111;DHT22;21290;50.158;8.658;2023-02-15T05:31:38;2.30;99.90
35111;DHT22;21290;50.158;8.658;2023-02-15T05:34:05;2.30;99.90
35111;DHT22;21290;50.158;8.658;2023-02-15T05:36:32;2.20;99.90
35111;DHT22;21290;50.158;8.658;2023-02-15T05:38:58;2.20;99.90
35111;DHT22;21290;50.158;8.658;2023-02-15T05:41:25;2.20;99.90
35111;DHT22;21290;50.158;8.658;2023-02-15T05:43:54;2.30;99.90
35111;DHT22;21290;50.158;8.658;2023-02-15T05:46:21;2.20;99.90
35111;DHT22;21290;50.158;8.658;2023-02-15T05:48:47;2.20;99.90
35111;DHT22;21290;50.158;8.658;2023-02-15T05:51:14;2.30;99.90
35111;DHT22;21290;50.158;8.658;2023-02-15T05:53:42;2.30;99.90
35111;DHT22;21290;50.158;8.658;2023-02-15T05:56:10;2.30;99.90
35111;DHT22;21290;50.158;8.658;2023-02-15T05:58:40;2.30;99.90
35111;DHT22;21290;50.158;8.658;2023-02-15T06:01:18;2.30;99.90
35111;DHT22;21290;50.158;8.658;2023-02-15T06:03:45;2.30;99.90
35111;DHT22;21290;50.158;8.658;2023-02-15T06:06:12;2.30;99.90
35111;DHT22;21290;50.158;8.658;2023-02-15T06:08:39;2.30;99.90
35111;DHT22;21290;50.158;8.658;2023-02-15T06:11:06;2.30;99.90
35111;DHT22;21290;50.158;8.658;2023-02-15T06:13:33;2.30;99.90
35111;DHT22;21290;50.158;8.658;2023-02-15T06:16:04;2.40;99.90
35111;DHT22;21290;50.158;8.658;2023-02-15T06:18:31;2.40;99.90
35111;DHT22;21290;50.158;8.658;2023-02-15T06:20:57;2.50;99.90
35111;DHT22;21290;50.158;8.658;2023-02-15T06:23:24;2.50;99.90
35111;DHT22;21290;50.158;8.658;2023-02-15T06:25:51;2.50;99.90
35111;DHT22;21290;50.158;8.658;2023-02-15T06:28:17;2.60;99.90
35111;DHT22;21290;50.158;8.658;2023-02-15T06:30:44;2.60;99.90
35111;DHT22;21290;50.158;8.658;2023-02-15T06:33:11;2.50;99.90
35111;DHT22;21290;50.158;8.658;2023-02-15T06:35:37;2.60;99.90
35111;DHT22;21290;50.158;8.658;2023-02-15T06:38:04;2.60;99.90
35111;DHT22;21290;50.158;8.658;2023-02-15T06:40:31;2.60;99.90
35111;DHT22;21290;50.158;8.658;2023-02-15T06:42:58;2.60;99.90
35111;DHT22;21290;50.158;8.658;2023-02-15T06:45:24;2.50;99.90
35111;DHT22;21290;50.158;8.658;2023-02-15T06:47:51;2.50;99.90
35111;DHT22;21290;50.158;8.658;2023-02-15T06:50:18;2.40;99.90
35111;DHT22;21290;50.158;8.658;2023-02-15T06:52:44;2.40;99.90
35111;DHT22;21290;50.158;8.658;2023-02-15T06:55:11;2.30;99.90
35111;DHT22;21290;50.158;8.658;2023-02-15T06:57:37;2.30;99.90
35111;DHT22;21290;50.158;8.658;2023-02-15T07:00:04;2.20;99.90
35111;DHT22;21290;50.158;8.658;2023-02-15T07:02:32;2.20;99.90
35111;DHT22;21290;50.158;8.658;2023-02-15T07:04:58;2.20;99.90
35111;DHT22;21290;50.158;8.658;2023-02-15T07:07:25;2.20;99.90
35111;DHT22;21290;50.158;8.658;2023-02-15T07:09:52;2.20;99.90
35111;DHT22;21290;50.158;8.658;2023-02-15T07:12:19;2.20;99.90
35111;DHT22;21290;50.158;8.658;2023-02-15T07:15:04;2.10;99.90
35111;DHT22;21290;50.158;8.658;2023-02-15T07:17:33;2.10;99.90
35111;DHT22;21290;50.158;8.658;2023-02-15T07:20:12;2.10;99.90
35111;DHT22;21290;50.158;8.658;2023-02-15T07:22:39;2.10;99.90
35111;DHT22;21290;50.158;8.658;2023-02-15T07:25:07;2.10;99.90
35111;DHT22;21290;50.158;8.658;2023-02-15T07:27:35;2.00;99.90
35111;DHT22;21290;50.158;8.658;2023-02-15T07:30:02;2.00;99.90
35111;DHT22;21290;50.158;8.658;2023-02-15T07:32:30;2.00;99.90
35111;DHT22;21290;50.158;8.658;2023-02-15T07:34:58;2.00;99.90
35111;DHT22;21290;50.158;8.658;2023-02-15T07:37:25;2.00;99.90
35111;DHT22;21290;50.158;8.658;2023-02-15T07:39:52;2.00;99.90
35111;DHT22;21290;50.158;8.658;2023-02-15T07:42:19;2.00;99.90
35111;DHT22;21290;50.158;8.658;2023-02-15T07:44:47;2.00;99.90
35111;DHT22;21290;50.158;8.658;2023-02-15T07:47:14;2.00;99.90
35111;DHT22;21290;50.158;8.658;2023-02-15T07:49:40;2.00;99.90
35111;DHT22;21290;50.158;8.658;2023-02-15T07:52:07;2.00;99.90
35111;DHT22;21290;50.158;8.658;2023-02-15T07:54:33;2.00;99.90
35111;DHT22;21290;50.158;8.658;2023-02-15T07:57:01;1.90;99.90
35111;DHT22;21290;50.158;8.658;2023-02-15T07:59:28;1.90;99.90
35111;DHT22;21290;50.158;8.658;2023-02-15T08:01:54;1.90;99.90
35111;DHT22;21290;50.158;8.658;2023-02-15T08:04:23;1.80;99.90
35111;DHT22;21290;50.158;8.658;2023-02-15T08:06:53;1.80;99.90
35111;DHT22;21290;50.158;8.658;2023-02-15T08:09:21;1.80;99.90
35111;DHT22;21290;50.158;8.658;2023-02-15T08:11:48;1.90;99.90
35111;DHT22;21290;50.158;8.658;2023-02-15T08:14:19;1.90;99.90
35111;DHT22;21290;50.158;8.658;2023-02-15T08:16:51;1.90;99.90
35111;DHT22;21290;50.158;8.658;2023-02-15T08:19:21;1.90;99.90
35111;DHT22;21290;50.158;8.658;2023-02-15T08:21:52;1.90;99.90
35111;DHT22;21290;50.158;8.658;2023-02-15T08:24:21;1.90;99.90
35111;DHT22;21290;50.158;8.658;2023-02-15T08:26:49;1.80;99.90
35111;DHT22;21290;50.158;8.658;2023-02-15T08:29:18;1.80;99.90
35111;DHT22;21290;50.158;8.658;2023-02-15T08:31:45;1.80;99.90
35111;DHT22;21290;50.158;8.658;2023-02-15T08:34:15;1.80;99.90
35111;DHT22;21290;50.158;8.658;2023-02-15T08:36:43;1.70;99.90
35111;DHT22;21290;50.158;8.658;2023-02-15T08:39:12;1.70;99.90
35111;DHT22;21290;50.158;8.658;2023-02-15T08:41:41;1.70;99.90
35111;DHT22;21290;50.158;8.658;2023-02-15T08:44:08;1.60;99.90
35111;DHT22;21290;50.158;8.658;2023-02-15T08:46:41;1.60;99.90
35111;DHT22;21290;50.158;8.658;2023-02-15T08:49:09;1.60;99.90
35111;DHT22;21290;50.158;8.658;2023-02-15T08:51:37;1.60;99.90
35111;DHT22;21290;50.158;8.658;2023-02-15T08:54:08;1.50;99.90
35111;DHT22;21290;50.158;8.658;2023-02-15T08:56:38;1.60;99.90
35111;DHT22;21290;50.158;8.658;2023-02-15T08:59:07;1.60;99.90
35111;DHT22;21290;50.158;8.658;2023-02-15T09:01:34;1.60;99.90
35111;DHT22;21290;50.158;8.658;2023-02-15T09:04:03;1.60;99.90
35111;DHT22;21290;50.158;8.658;2023-02-15T09:06:31;1.50;99.90
35111;DHT22;21290;50.158;8.658;2023-02-15T09:08:58;1.50;99.90
35111;DHT22;21290;50.158;8.658;2023-02-15T09:11:27;1.40;99.90
35111;DHT22;21290;50.158;8.658;2023-02-15T09:13:59;1.40;99.90
35111;DHT22;21290;50.158;8.658;2023-02-15T09:16:28;1.40;99.90
35111;DHT22;21290;50.158;8.658;2023-02-15T09:18:55;1.50;99.90
35111;DHT22;21290;50.158;8.658;2023-02-15T09:21:25;1.50;99.90
35111;DHT22;21290;50.158;8.658;2023-02-15T09:23:56;1.50;99.90
35111;DHT22;21290;50.158;8.658;2023-02-15T09:26:24;1.60;99.90
35111;DHT22;21290;50.158;8.658;2023-02-15T09:28:56;1.60;99.90
35111;DHT22;21290;50.158;8.658;2023-02-15T09:31:26;1.60;99.90
35111;DHT22;21290;50.158;8.658;2023-02-15T09:33:54;1.60;99.90
35111;DHT22;21290;50.158;8.658;2023-02-15T09:36:26;1.60;99.90
35111;DHT22;21290;50.158;8.658;2023-02-15T09:50:24;1.70;99.90
35111;DHT22;21290;50.158;8.658;2023-02-15T09:58:47;1.80;99.90
35111;DHT22;21290;50.158;8.658;2023-02-15T10:04:10;1.90;99.90
35111;DHT22;21290;50.158;8.658;2023-02-15T10:06:47;2.00;99.90
35111;DHT22;21290;50.158;8.658;2023-02-15T10:09:35;1.90;99.90
35111;DHT22;21290;50.158;8.658;2023-02-15T10:12:14;2.00;99.90
35111;DHT22;21290;50.158;8.658;2023-02-15T10:17:58;1.90;99.90
35111;DHT22;21290;50.158;8.658;2023-02-15T10:26:22;2.00;99.90
35111;DHT22;21290;50.158;8.658;2023-02-15T10:28:55;2.00;99.90
35111;DHT22;21290;50.158;8.658;2023-02-15T10:34:24;1.90;99.90
35111;DHT22;21290;50.158;8.658;2023-02-15T10:45:06;2.10;99.90
35111;DHT22;21290;50.158;8.658;2023-02-15T10:50:55;2.10;99.90
35111;DHT22;21290;50.158;8.658;2023-02-15T10:56:35;2.00;99.90
35111;DHT22;21290;50.158;8.658;2023-02-15T11:05:35;2.10;99.90
35111;DHT22;21290;50.158;8.658;2023-02-15T11:08:07;2.10;99.90
35111;DHT22;21290;50.158;8.658;2023-02-15T11:10:42;2.10;99.90
35111;DHT22;21290;50.158;8.658;2023-02-15T11:13:23;2.10;99.90
35111;DHT22;21290;50.158;8.658;2023-02-15T11:16:20;2.20;99.90
35111;DHT22;21290;50.158;8.658;2023-02-15T11:18:57;2.10;99.90
35111;DHT22;21290;50.158;8.658;2023-02-15T11:21:34;2.10;99.90
35111;DHT22;21290;50.158;8.658;2023-02-15T11:24:10;2.20;99.90
35111;DHT22;21290;50.158;8.658;2023-02-15T11:26:43;2.20;99.90
35111;DHT22;21290;50.158;8.658;2023-02-15T11:29:29;2.40;99.90
35111;DHT22;21290;50.158;8.658;2023-02-15T11:32:18;2.30;99.90
35111;DHT22;21290;50.158;8.658;2023-02-15T11:37:43;2.40;99.90
35111;DHT22;21290;50.158;8.658;2023-02-15T11:40:25;2.50;99.90
35111;DHT22;21290;50.158;8.658;2023-02-15T11:42:58;2.50;99.90
35111;DHT22;21290;50.158;8.658;2023-02-15T11:45:32;2.50;99.90
35111;DHT22;21290;50.158;8.658;2023-02-15T11:48:01;2.50;99.90
35111;DHT22;21290;50.158;8.658;2023-02-15T11:50:34;2.60;99.90
35111;DHT22;21290;50.158;8.658;2023-02-15T11:53:06;2.70;99.90
35111;DHT22;21290;50.158;8.658;2023-02-15T11:55:35;2.70;99.90
35111;DHT22;21290;50.158;8.658;2023-02-15T11:58:31;2.70;99.90
35111;DHT22;21290;50.158;8.658;2023-02-15T12:01:16;2.70;99.90
35111;DHT22;21290;50.158;8.658;2023-02-15T12:03:53;2.70;99.90
35111;DHT22;21290;50.158;8.658;2023-02-15T12:06:26;2.80;99.90
35111;DHT22;21290;50.158;8.658;2023-02-15T12:12:28;2.80;99.90
35111;DHT22;21290;50.158;8.658;2023-02-15T12:15:04;2.70;99.90
35111;DHT22;21290;50.158;8.658;2023-02-15T12:17:34;2.80;99.90
35111;DHT22;21290;50.158;8.658;2023-02-15T12:20:30;2.80;99.90
35111;DHT22;21290;50.158;8.658;2023-02-15T12:23:03;2.90;99.90
35111;DHT22;21290;50.158;8.658;2023-02-15T12:25:37;2.90;99.90
35111;DHT22;21290;50.158;8.658;2023-02-15T12:30:45;3.00;99.90
35111;DHT22;21290;50.158;8.658;2023-02-15T12:33:26;3.10;99.90
35111;DHT22;21290;50.158;8.658;2023-02-15T12:36:12;3.20;99.90
35111;DHT22;21290;50.158;8.658;2023-02-15T12:38:41;3.20;99.90
35111;DHT22;21290;50.158;8.658;2023-02-15T12:41:25;3.20;99.90
35111;DHT22;21290;50.158;8.658;2023-02-15T12:44:06;3.20;99.90
35111;DHT22;21290;50.158;8.658;2023-02-15T12:46:40;3.20;99.90
35111;DHT22;21290;50.158;8.658;2023-02-15T12:51:50;3.30;99.90
35111;DHT22;21290;50.158;8.658;2023-02-15T12:54:33;3.30;99.90
35111;DHT22;21290;50.158;8.658;2023-02-15T12:57:28;3.40;99.90
35111;DHT22;21290;50.158;8.658;2023-02-15T13:04:57;3.40;99.90
35111;DHT22;21290;50.158;8.658;2023-02-15T13:07:30;3.40;99.90
35111;DHT22;21290;50.158;8.658;2023-02-15T13:09:58;3.50;99.90
35111;DHT22;21290;50.158;8.658;2023-02-15T13:12:27;3.60;99.90
35111;DHT22;21290;50.158;8.658;2023-02-15T13:14:57;3.60;99.90
35111;DHT22;21290;50.158;8.658;2023-02-15T13:17:32;3.70;99.90
35111;DHT22;21290;50.158;8.658;2023-02-15T13:20:20;3.70;99.90
35111;DHT22;21290;50.158;8.658;2023-02-15T13:22:52;3.70;99.90
35111;DHT22;21290;50.158;8.658;2023-02-15T13:25:25;3.70;99.90
35111;DHT22;21290;50.158;8.658;2023-02-15T13:27:57;3.70;99.90
35111;DHT22;21290;50.158;8.658;2023-02-15T13:30:35;3.70;99.90
35111;DHT22;21290;50.158;8.658;2023-02-15T13:33:05;3.80;99.90
35111;DHT22;21290;50.158;8.658;2023-02-15T13:35:46;3.90;99.90
35111;DHT22;21290;50.158;8.658;2023-02-15T13:41:17;3.90;99.90
35111;DHT22;21290;50.158;8.658;2023-02-15T13:52:26;3.80;99.90
35111;DHT22;21290;50.158;8.658;2023-02-15T14:06:33;3.90;99.90
35111;DHT22;21290;50.158;8.658;2023-02-15T14:09:27;3.80;99.90
35111;DHT22;21290;50.158;8.658;2023-02-15T14:18:19;4.00;99.90
35111;DHT22;21290;50.158;8.658;2023-02-15T14:21:14;3.90;99.90
35111;DHT22;21290;50.158;8.658;2023-02-15T14:29:25;4.00;99.90
35111;DHT22;21290;50.158;8.658;2023-02-15T14:31:59;3.90;99.90
35111;DHT22;21290;50.158;8.658;2023-02-15T14:34:52;4.00;99.90
35111;DHT22;21290;50.158;8.658;2023-02-15T14:40:40;4.00;99.90
35111;DHT22;21290;50.158;8.658;2023-02-15T14:56:44;3.70;99.90
35111;DHT22;21290;50.158;8.658;2023-02-15T15:01:38;3.60;99.90
35111;DHT22;21290;50.158;8.658;2023-02-15T15:04:12;3.60;99.90
35111;DHT22;21290;50.158;8.658;2023-02-15T15:06:43;3.60;99.90
35111;DHT22;21290;50.158;8.658;2023-02-15T15:09:25;3.60;99.90
35111;DHT22;21290;50.158;8.658;2023-02-15T15:11:53;3.50;99.90
35111;DHT22;21290;50.158;8.658;2023-02-15T15:17:03;3.30;99.90
35111;DHT22;21290;50.158;8.658;2023-02-15T15:19:57;3.30;99.90
35111;DHT22;21290;50.158;8.658;2023-02-15T15:22:27;3.20;99.90
35111;DHT22;21290;50.158;8.658;2023-02-15T15:25:01;3.30;99.90
35111;DHT22;21290;50.158;8.658;2023-02-15T15:44:31;3.30;99.90
35111;DHT22;21290;50.158;8.658;2023-02-15T15:47:22;3.30;99.90
35111;DHT22;21290;50.158;8.658;2023-02-15T15:49:56;3.40;99.90
35111;DHT22;21290;50.158;8.658;2023-02-15T15:52:23;3.30;99.90
35111;DHT22;21290;50.158;8.658;2023-02-15T15:54:57;3.30;99.90
35111;DHT22;21290;50.158;8.658;2023-02-15T15:57:32;3.20;99.90
35111;DHT22;21290;50.158;8.658;2023-02-15T16:00:00;3.10;99.90
35111;DHT22;21290;50.158;8.658;2023-02-15T16:02:27;3.10;99.90
35111;DHT22;21290;50.158;8.658;2023-02-15T16:04:54;3.10;99.90
35111;DHT22;21290;50.158;8.658;2023-02-15T16:07:25;3.20;99.90
35111;DHT22;21290;50.158;8.658;2023-02-15T16:10:00;3.20;99.90
35111;DHT22;21290;50.158;8.658;2023-02-15T16:12:37;3.20;99.90
35111;DHT22;21290;50.158;8.658;2023-02-15T16:15:34;3.20;99.90
35111;DHT22;21290;50.158;8.658;2023-02-15T16:18:02;3.10;99.90
35111;DHT22;21290;50.158;8.658;2023-02-15T16:20:32;3.20;99.90
35111;DHT22;21290;50.158;8.658;2023-02-15T16:26:18;3.10;99.90
35111;DHT22;21290;50.158;8.658;2023-02-15T16:28:52;3.10;99.90
35111;DHT22;21290;50.158;8.658;2023-02-15T16:31:20;3.20;99.90
35111;DHT22;21290;50.158;8.658;2023-02-15T16:33:54;3.10;99.90
35111;DHT22;21290;50.158;8.658;2023-02-15T16:36:24;3.10;99.90
35111;DHT22;21290;50.158;8.658;2023-02-15T16:41:25;3.00;99.90
35111;DHT22;21290;50.158;8.658;2023-02-15T16:43:55;3.00;99.90
35111;DHT22;21290;50.158;8.658;2023-02-15T16:48:51;3.00;99.90
35111;DHT22;21290;50.158;8.658;2023-02-15T16:51:21;2.90;99.90
35111;DHT22;21290;50.158;8.658;2023-02-15T16:53:48;3.00;99.90
35111;DHT22;21290;50.158;8.658;2023-02-15T16:56:15;2.90;99.90
35111;DHT22;21290;50.158;8.658;2023-02-15T16:58:45;2.90;99.90
35111;DHT22;21290;50.158;8.658;2023-02-15T17:01:14;2.90;99.90
35111;DHT22;21290;50.158;8.658;2023-02-15T17:03:41;2.80;99.90
35111;DHT22;21290;50.158;8.658;2023-02-15T17:06:26;2.80;99.90
35111;DHT22;21290;50.158;8.658;2023-02-15T17:09:04;2.80;99.90
35111;DHT22;21290;50.158;8.658;2023-02-15T17:11:37;2.80;99.90
35111;DHT22;21290;50.158;8.658;2023-02-15T17:16:35;2.80;99.90
35111;DHT22;21290;50.158;8.658;2023-02-15T17:19:03;2.80;99.90
35111;DHT22;21290;50.158;8.658;2023-02-15T17:21:41;2.80;99.90
35111;DHT22;21290;50.158;8.658;2023-02-15T17:24:16;2.80;99.90
35111;DHT22;21290;50.158;8.658;2023-02-15T17:26:49;2.80;99.90
35111;DHT22;21290;50.158;8.658;2023-02-15T17:29:25;2.80;99.90
35111;DHT22;21290;50.158;8.658;2023-02-15T17:31:55;2.80;99.90
35111;DHT22;21290;50.158;8.658;2023-02-15T17:37:25;2.70;99.90
35111;DHT22;21290;50.158;8.658;2023-02-15T17:39:52;2.70;99.90
35111;DHT22;21290;50.158;8.658;2023-02-15T17:42:19;2.70;99.90
35111;DHT22;21290;50.158;8.658;2023-02-15T17:44:46;2.70;99.90
35111;DHT22;21290;50.158;8.658;2023-02-15T17:47:18;2.70;99.90
35111;DHT22;21290;50.158;8.658;2023-02-15T17:49:46;2.70;99.90
35111;DHT22;21290;50.158;8.658;2023-02-15T17:52:15;2.70;99.90
35111;DHT22;21290;50.158;8.658;2023-02-15T17:54:44;2.70;99.90
35111;DHT22;21290;50.158;8.658;2023-02-15T17:57:29;2.70;99.90
35111;DHT22;21290;50.158;8.658;2023-02-15T17:59:56;2.70;99.90
35111;DHT22;21290;50.158;8.658;2023-02-15T18:02:42;2.70;99.90
35111;DHT22;21290;50.158;8.658;2023-02-15T18:05:27;2.70;99.90
35111;DHT22;21290;50.158;8.658;2023-02-15T18:08:14;2.70;99.90
35111;DHT22;21290;50.158;8.658;2023-02-15T18:11:00;2.60;99.90
35111;DHT22;21290;50.158;8.658;2023-02-15T18:13:46;2.60;99.90
35111;DHT22;21290;50.158;8.658;2023-02-15T18:16:14;2.60;99.90
35111;DHT22;21290;50.158;8.658;2023-02-15T18:18:43;2.60;99.90
35111;DHT22;21290;50.158;8.658;2023-02-15T18:21:10;2.50;99.90
35111;DHT22;21290;50.158;8.658;2023-02-15T18:23:38;2.50;99.90
35111;DHT22;21290;50.158;8.658;2023-02-15T18:26:05;2.50;99.90
35111;DHT22;21290;50.158;8.658;2023-02-15T18:28:32;2.50;99.90
35111;DHT22;21290;50.158;8.658;2023-02-15T18:30:59;2.50;99.90
35111;DHT22;21290;50.158;8.658;2023-02-15T18:33:45;2.50;99.90
35111;DHT22;21290;50.158;8.658;2023-02-15T18:36:41;2.50;99.90
35111;DHT22;21290;50.158;8.658;2023-02-15T18:39:30;2.50;99.90
35111;DHT22;21290;50.158;8.658;2023-02-15T18:41:59;2.50;99.90
35111;DHT22;21290;50.158;8.658;2023-02-15T18:44:26;2.50;99.90
35111;DHT22;21290;50.158;8.658;2023-02-15T18:46:53;2.40;99.90
35111;DHT22;21290;50.158;8.658;2023-02-15T18:49:19;2.40;99.90
35111;DHT22;21290;50.158;8.658;2023-02-15T18:51:46;2.40;99.90
35111;DHT22;21290;50.158;8.658;2023-02-15T18:54:21;2.50;99.90
35111;DHT22;21290;50.158;8.658;2023-02-15T18:56:56;2.40;99.90
35111;DHT22;21290;50.158;8.658;2023-02-15T18:59:24;2.40;99.90
35111;DHT22;21290;50.158;8.658;2023-02-15T19:01:52;2.40;99.90
35111;DHT22;21290;50.158;8.658;2023-02-15T19:04:19;2.40;99.90
35111;DHT22;21290;50.158;8.658;2023-02-15T19:06:47;2.40;99.90
35111;DHT22;21290;50.158;8.658;2023-02-15T19:09:17;2.40;99.90
35111;DHT22;21290;50.158;8.658;2023-02-15T19:11:50;2.40;99.90
35111;DHT22;21290;50.158;8.658;2023-02-15T19:14:25;2.40;99.90
35111;DHT22;21290;50.158;8.658;2023-02-15T19:16:53;2.40;99.90
35111;DHT22;21290;50.158;8.658;2023-02-15T19:19:20;2.40;99.90
35111;DHT22;21290;50.158;8.658;2023-02-15T19:21:46;2.40;99.90
35111;DHT22;21290;50.158;8.658;2023-02-15T19:24:24;2.40;99.90